Time;durP1;ratioP1;P1;durP2;ratioP2;P2;SDS_P1;SDS_P2;PMS_P1;PMS_P2;Temp;Humidity;BMP_temperature;BMP_pressure;BME280_temperature;BME280_humidity;BME280_pressure;Samples;Min_cycle;Max_cycle;Signal;HPM_P1;HPM_P2
2022/11/08 00:02:40;;;;;;;11.68;2.40;;;;;;;11.05;87.84;100912.84;5050848;28;20030;-71
2022/11/08 00:16:11;;;;;;;8.05;1.85;;;;;;;11.16;87.72;100915.16;5040942;28;20050;-71
2022/11/08 00:18:38;;;;;;;8.25;2.20;;;;;;;11.11;87.50;100917.06;5042917;28;20107;-71
2022/11/08 00:21:05;;;;;;;9.00;2.28;;;;;;;11.08;87.74;100917.19;5048163;28;20053;-71
2022/11/08 00:23:32;;;;;;;8.95;2.55;;;;;;;11.00;87.97;100912.97;5043879;28;20061;-72
2022/11/08 00:25:59;;;;;;;5.80;2.05;;;;;;;10.98;87.88;100911.31;5054171;28;20511;-71
2022/11/08 00:28:26;;;;;;;10.40;2.53;;;;;;;10.94;88.07;100913.19;5049950;28;20499;-72
2022/11/08 00:30:53;;;;;;;9.48;2.33;;;;;;;10.95;88.35;100912.28;5050455;28;20052;-72
2022/11/08 00:33:20;;;;;;;12.18;2.75;;;;;;;10.98;88.55;100909.56;5037260;28;20511;-72
2022/11/08 00:35:47;;;;;;;11.40;2.42;;;;;;;11.01;88.86;100906.78;5053871;28;20045;-71
2022/11/08 00:38:14;;;;;;;10.75;2.80;;;;;;;11.07;88.91;100910.16;5042323;28;20091;-72
2022/11/08 00:40:41;;;;;;;7.22;1.83;;;;;;;11.12;89.20;100909.13;5052120;28;20618;-71
2022/11/08 00:43:09;;;;;;;6.70;2.30;;;;;;;11.17;89.27;100907.19;5048167;28;20053;-71
2022/11/08 00:45:36;;;;;;;7.55;2.58;;;;;;;11.19;89.21;100897.44;5035942;28;20042;-71
2022/11/08 00:48:10;;;;;;;6.28;2.38;;;;;;;11.23;88.89;100911.41;5044942;28;20050;-71
2022/11/08 00:50:38;;;;;;;7.55;2.35;;;;;;;11.19;88.55;100905.38;5047453;28;20037;-71
2022/11/08 00:53:06;;;;;;;9.10;2.60;;;;;;;11.16;88.45;100901.97;5037147;28;20052;-70
2022/11/08 00:55:33;;;;;;;6.97;2.55;;;;;;;11.08;88.49;100902.19;5049990;28;20490;-70
2022/11/08 00:58:03;;;;;;;10.95;2.70;;;;;;;11.01;88.44;100905.94;5040332;28;20072;-70
2022/11/08 01:00:32;;;;;;;6.85;2.75;;;;;;;10.92;88.65;100903.59;5050211;28;20113;-70
2022/11/08 01:03:18;;;;;;;7.55;3.03;;;;;;;10.84;88.58;100896.75;5044853;28;20464;-70
2022/11/08 01:05:51;;;;;;;7.68;2.72;;;;;;;10.78;88.68;100899.59;5040128;28;20520;-71
2022/11/08 01:08:22;;;;;;;9.63;2.80;;;;;;;10.72;89.10;100898.00;5043411;28;20545;-71
2022/11/08 01:10:51;;;;;;;8.13;2.50;;;;;;;10.69;89.44;100889.31;5052525;28;20092;-70
2022/11/08 01:13:19;;;;;;;11.25;3.05;;;;;;;10.67;89.52;100888.50;5035866;28;20037;-70
2022/11/08 01:15:46;;;;;;;8.02;2.38;;;;;;;10.65;89.65;100895.59;5044222;28;20034;-72
2022/11/08 01:18:15;;;;;;;11.27;2.47;;;;;;;10.62;89.76;100891.28;5045647;28;20050;-70
2022/11/08 01:20:45;;;;;;;5.93;2.50;;;;;;;10.62;90.10;100893.06;5051743;28;20426;-72
2022/11/08 01:23:13;;;;;;;8.77;2.80;;;;;;;10.58;90.21;100887.03;5060311;28;20529;-71
2022/11/08 01:25:45;;;;;;;7.90;2.88;;;;;;;10.55;90.49;100887.97;5052349;28;20038;-71
2022/11/08 01:28:12;;;;;;;10.88;3.10;;;;;;;10.55;90.39;100882.69;5048312;28;20048;-71
2022/11/08 01:30:43;;;;;;;15.38;2.80;;;;;;;10.50;90.47;100884.59;5041881;28;20499;-72
2022/11/08 01:33:11;;;;;;;12.70;2.90;;;;;;;10.48;90.81;100889.06;5032757;28;20046;-72
2022/11/08 01:35:39;;;;;;;6.47;2.75;;;;;;;10.45;90.70;100894.41;5042058;28;20049;-72
2022/11/08 01:38:06;;;;;;;14.15;2.90;;;;;;;10.45;90.78;100894.41;5030585;28;20046;-72
2022/11/08 01:40:45;;;;;;;8.25;2.08;;;;;;;10.42;90.81;100883.97;5038042;28;20045;-73
2022/11/08 01:43:25;;;;;;;12.52;2.40;;;;;;;10.39;90.84;100881.41;5042818;28;20854;-73
2022/11/08 01:46:14;;;;;;;10.45;2.70;;;;;;;10.36;90.98;100877.06;5045570;28;20116;-73
2022/11/08 01:48:56;;;;;;;9.65;2.72;;;;;;;10.34;91.04;100872.72;5038172;28;20045;-73
2022/11/08 01:51:31;;;;;;;10.00;2.65;;;;;;;10.33;91.32;100874.50;5044144;28;20503;-71
2022/11/08 01:54:07;;;;;;;7.95;2.72;;;;;;;10.31;91.21;100878.97;5049354;28;20512;-72
2022/11/08 01:56:38;;;;;;;9.27;2.30;;;;;;;10.27;91.36;100866.81;5043772;28;20041;-71
2022/11/08 01:59:09;;;;;;;10.63;2.60;;;;;;;10.25;91.50;100866.81;5046198;28;20503;-70
2022/11/08 02:01:36;;;;;;;10.23;2.40;;;;;;;10.23;91.45;100862.50;5048609;28;20041;-70
2022/11/08 02:04:05;;;;;;;6.65;2.55;;;;;;;10.21;91.30;100852.03;5050337;28;20076;-70
2022/11/08 02:06:37;;;;;;;7.80;2.55;;;;;;;10.15;91.30;100846.91;5047478;28;20455;-71
2022/11/08 02:09:12;;;;;;;7.78;2.67;;;;;;;10.13;91.56;100843.44;5054399;28;20494;-71
2022/11/08 02:11:40;;;;;;;9.98;2.35;;;;;;;10.12;91.65;100851.41;5052872;28;20557;-70
2022/11/08 02:14:07;;;;;;;8.13;2.55;;;;;;;10.11;91.92;100840.03;5048138;28;20048;-71
2022/11/08 02:16:34;;;;;;;10.68;2.42;;;;;;;10.08;91.89;100840.09;5044495;28;20041;-70
2022/11/08 02:19:06;;;;;;;6.18;2.25;;;;;;;10.06;91.96;100831.38;5037799;28;20100;-71
2022/11/08 02:21:48;;;;;;;10.10;2.50;;;;;;;10.04;92.04;100836.69;5034499;28;20041;-71
2022/11/08 02:24:16;;;;;;;10.90;2.42;;;;;;;10.06;92.45;100827.00;5046384;28;20037;-71
2022/11/08 02:26:46;;;;;;;7.50;2.40;;;;;;;10.06;92.48;100815.56;5046823;28;20056;-69
2022/11/08 02:29:34;;;;;;;10.35;2.55;;;;;;;10.06;92.46;100805.03;5046252;28;20363;-68
2022/11/08 02:32:03;;;;;;;12.00;2.15;;;;;;;10.07;92.59;100804.97;5040291;28;20455;-68
2022/11/08 02:34:42;;;;;;;5.25;2.03;;;;;;;10.10;92.62;100802.28;5035186;28;20046;-68
2022/11/08 02:37:17;;;;;;;4.43;2.03;;;;;;;10.12;93.09;100781.16;5047134;28;20058;-68
2022/11/08 02:39:45;;;;;;;;;;;;;;;10.17;93.10;100797.69;5051565;28;20105;-68
2022/11/08 02:42:14;;;;;;;4.45;1.92;;;;;;;10.20;92.96;100792.34;5046961;28;20394;-68
2022/11/08 02:44:41;;;;;;;7.05;2.05;;;;;;;10.23;92.99;100788.75;5050031;28;20045;-68
2022/11/08 02:47:08;;;;;;;5.28;1.92;;;;;;;10.26;92.79;100784.25;5034738;28;20068;-68
2022/11/08 02:49:36;;;;;;;6.90;2.03;;;;;;;10.26;92.84;100784.25;5052034;28;20735;-68
2022/11/08 02:52:04;;;;;;;6.20;1.95;;;;;;;10.26;92.83;100784.25;5047354;28;20338;-69
2022/11/08 02:54:31;;;;;;;7.78;2.10;;;;;;;10.28;92.74;100784.19;5037347;28;20077;-68
2022/11/08 02:56:58;;;;;;;6.65;2.10;;;;;;;10.30;92.63;100776.25;5048175;28;20041;-68
2022/11/08 02:59:25;;;;;;;8.25;1.88;;;;;;;10.30;92.61;100766.56;5048596;28;20104;-70
2022/11/08 03:01:52;;;;;;;6.55;1.90;;;;;;;10.30;92.50;100763.09;5054454;28;20029;-70
2022/11/08 03:04:19;;;;;;;8.20;2.15;;;;;;;10.30;92.55;100771.84;5054826;28;20091;-70
2022/11/08 03:06:47;;;;;;;7.85;2.17;;;;;;;10.31;92.34;100768.28;5045128;28;20041;-70
2022/11/08 03:09:14;;;;;;;9.57;2.08;;;;;;;10.29;92.28;100766.63;5049145;28;20702;-69
2022/11/08 03:11:43;;;;;;;7.80;1.88;;;;;;;10.29;92.03;100761.34;5044651;28;20468;-69
2022/11/08 03:14:10;;;;;;;8.85;2.10;;;;;;;10.29;91.94;100756.09;5050696;28;20046;-70
2022/11/08 03:16:37;;;;;;;5.63;1.60;;;;;;;10.29;92.12;100753.44;5049004;28;20045;-70
2022/11/08 03:19:04;;;;;;;5.88;1.50;;;;;;;10.29;92.02;100750.81;5051043;28;20038;-69
2022/11/08 03:21:35;;;;;;;4.63;1.45;;;;;;;10.31;91.81;100746.38;5044655;28;20050;-70
2022/11/08 03:24:04;;;;;;;10.05;1.92;;;;;;;10.32;91.99;100738.41;5056252;28;20084;-70
2022/11/08 03:26:31;;;;;;;8.20;1.83;;;;;;;10.35;91.78;100740.06;5043035;28;20045;-70
2022/11/08 03:28:58;;;;;;;8.20;2.00;;;;;;;10.34;91.56;100731.31;5034509;28;20500;-72
2022/11/08 03:31:26;;;;;;;10.20;1.70;;;;;;;10.36;91.50;100734.78;5053056;28;20049;-72
2022/11/08 03:33:53;;;;;;;6.18;1.80;;;;;;;10.34;91.33;100731.31;5053923;28;20049;-73
2022/11/08 03:36:20;;;;;;;5.07;1.80;;;;;;;10.36;91.25;100728.63;5043265;28;20093;-75
2022/11/08 03:38:47;;;;;;;4.20;1.70;;;;;;;10.35;91.31;100711.97;5054237;28;20076;-75
2022/11/08 03:41:14;;;;;;;4.15;1.38;;;;;;;10.37;90.99;100704.91;5054471;28;20046;-75
2022/11/08 03:43:41;;;;;;;4.50;1.48;;;;;;;10.37;90.97;100714.53;5035720;28;20046;-75
2022/11/08 03:46:08;;;;;;;7.15;1.70;;;;;;;10.37;90.68;100711.91;5052857;28;20141;-71
2022/11/08 03:48:35;;;;;;;5.60;1.80;;;;;;;10.34;90.62;100704.09;5045229;28;20049;-71
2022/11/08 03:51:02;;;;;;;9.00;1.73;;;;;;;10.31;90.73;100706.84;5036356;28;20201;-71
2022/11/08 03:53:29;;;;;;;6.35;1.73;;;;;;;10.30;90.60;100700.69;5052482;28;20041;-71
2022/11/08 03:56:00;;;;;;;8.68;1.92;;;;;;;10.27;90.51;100698.19;5049424;28;20050;-71
2022/11/08 03:58:29;;;;;;;5.50;1.40;;;;;;;10.23;90.51;100700.00;5047669;28;20037;-71
2022/11/08 04:01:04;;;;;;;4.63;1.67;;;;;;;10.22;90.49;100694.81;5051694;28;20041;-71
2022/11/08 04:03:31;;;;;;;7.00;1.63;;;;;;;10.18;90.24;100686.13;5049762;28;20136;-71
2022/11/08 04:06:01;;;;;;;11.55;2.42;;;;;;;10.16;90.35;100679.19;5039630;28;20054;-71
2022/11/08 04:08:29;;;;;;;7.25;1.83;;;;;;;10.14;90.23;100667.84;5048801;28;20499;-71
2022/11/08 04:15:13;;;;;;;7.22;1.65;;;;;;;10.14;90.08;100667.84;5044889;28;20123;-71
2022/11/08 04:16:33;;;;;;;6.88;1.70;;;;;;;10.13;90.13;100655.59;5046223;28;20041;-71
2022/11/08 04:21:49;;;;;;;5.07;1.67;;;;;;;10.15;90.02;100651.13;5034122;28;20053;-71
2022/11/08 04:24:17;;;;;;;4.05;1.65;;;;;;;10.15;89.69;100638.81;5052676;28;20049;-71
2022/11/08 04:26:44;;;;;;;6.47;1.77;;;;;;;10.17;89.74;100647.53;5047192;28;20123;-71
2022/11/08 04:29:12;;;;;;;6.97;1.60;;;;;;;10.16;89.41;100634.41;5045217;28;20050;-71
2022/11/08 04:31:40;;;;;;;4.38;1.60;;;;;;;10.13;89.18;100632.72;5051898;28;20037;-71
2022/11/08 04:34:07;;;;;;;5.88;1.80;;;;;;;10.12;89.39;100635.41;5049631;28;20045;-71
2022/11/08 04:36:34;;;;;;;5.97;1.88;;;;;;;10.12;89.27;100635.41;5044777;28;20049;-70
2022/11/08 04:39:02;;;;;;;7.45;1.70;;;;;;;10.14;89.04;100616.00;5037816;28;20049;-72
2022/11/08 04:41:29;;;;;;;5.20;1.67;;;;;;;10.15;89.20;100614.25;5044954;28;20046;-72
2022/11/08 04:43:56;;;;;;;8.85;1.83;;;;;;;10.16;89.06;100614.19;5047449;28;20452;-72
2022/11/08 04:46:27;;;;;;;5.95;1.50;;;;;;;10.16;89.04;100613.34;5050968;28;20041;-72
2022/11/08 04:48:58;;;;;;;6.90;1.88;;;;;;;10.13;88.98;100613.44;5050724;28;20045;-72
2022/11/08 04:51:29;;;;;;;6.75;1.67;;;;;;;10.15;88.82;100614.25;5050499;28;20045;-70
2022/11/08 04:53:59;;;;;;;7.85;2.65;;;;;;;10.13;88.74;100614.28;5045373;28;20037;-71
2022/11/08 04:56:29;;;;;;;5.57;1.80;;;;;;;10.13;88.90;100613.44;5040366;28;20045;-71
2022/11/08 04:58:59;;;;;;;6.68;1.60;;;;;;;10.16;88.72;100608.06;5048635;28;20049;-71
2022/11/08 05:01:29;;;;;;;6.32;1.73;;;;;;;10.18;88.68;100603.59;5049948;28;20041;-70
2022/11/08 05:03:57;;;;;;;6.25;1.48;;;;;;;10.16;88.59;100598.38;5050663;28;20440;-70
2022/11/08 05:06:30;;;;;;;8.23;1.60;;;;;;;10.17;88.48;100599.28;5046237;28;20519;-70
2022/11/08 05:08:59;;;;;;;7.07;1.58;;;;;;;10.16;88.56;100592.28;5052470;28;20068;-70
2022/11/08 05:11:28;;;;;;;3.50;1.27;;;;;;;10.14;88.48;100589.66;5050546;28;20037;-70
2022/11/08 05:13:56;;;;;;;6.72;1.52;;;;;;;10.11;88.40;100581.88;5048473;28;20042;-70
2022/11/08 05:16:28;;;;;;;8.30;1.83;;;;;;;10.10;88.56;100578.38;5038600;28;20041;-70
2022/11/08 05:18:56;;;;;;;7.90;1.60;;;;;;;10.09;88.47;100576.66;5036867;28;20034;-70
2022/11/08 05:24:14;;;;;;;4.97;1.60;;;;;;;10.09;88.35;100562.63;5062404;28;20037;-69
2022/11/08 05:26:45;;;;;;;5.32;1.60;;;;;;;10.13;88.60;100563.38;5034771;28;20424;-70
2022/11/08 05:29:14;;;;;;;4.88;1.50;;;;;;;10.10;88.51;100549.41;5050752;28;20582;-71
2022/11/08 05:31:41;;;;;;;9.13;2.00;;;;;;;10.10;88.38;100541.50;5032441;28;20096;-70
2022/11/08 05:34:09;;;;;;;9.23;1.73;;;;;;;10.12;88.39;100538.84;5044692;28;20092;-71
2022/11/08 05:36:36;;;;;;;6.78;1.98;;;;;;;10.14;88.19;100533.50;5048927;28;20055;-71
2022/11/08 05:39:04;;;;;;;5.20;1.85;;;;;;;10.16;88.29;100536.94;5049211;28;20120;-71
2022/11/08 05:41:31;;;;;;;4.03;1.58;;;;;;;10.15;88.18;100543.97;5048430;28;20109;-70
2022/11/08 05:43:58;;;;;;;3.72;1.70;;;;;;;10.13;88.22;100532.63;5047422;28;20088;-71
2022/11/08 05:46:25;;;;;;;2.88;1.40;;;;;;;10.14;88.08;100544.88;5048420;28;20038;-70
2022/11/08 05:48:53;;;;;;;7.32;1.80;;;;;;;10.16;88.08;100534.31;5047099;28;20124;-70
2022/11/08 05:51:20;;;;;;;7.68;1.88;;;;;;;10.14;88.18;100531.72;5048930;28;20080;-70
2022/11/08 05:53:47;;;;;;;3.88;1.40;;;;;;;10.20;88.55;100538.56;5045616;28;20046;-70
2022/11/08 05:56:16;;;;;;;7.10;1.70;;;;;;;10.30;89.89;100529.44;5049152;28;20042;-70
2022/11/08 05:58:44;;;;;;;4.43;1.52;;;;;;;10.43;89.56;100515.88;5052193;28;20111;-70
2022/11/08 06:01:18;;;;;;;11.85;2.25;;;;;;;10.56;89.48;100511.91;5051319;28;20494;-70
2022/11/08 06:03:47;;;;;;;5.07;1.73;;;;;;;10.65;88.42;100510.69;5045056;28;20060;-70
2022/11/08 06:06:18;;;;;;;6.70;1.83;;;;;;;10.67;87.86;100517.66;5051248;28;20052;-69
2022/11/08 06:08:47;;;;;;;8.55;1.90;;;;;;;10.68;86.89;100515.84;5055288;28;20053;-69
2022/11/08 06:11:34;;;;;;;4.80;1.73;;;;;;;10.66;86.73;100513.28;5048705;28;20042;-70
2022/11/08 06:14:01;;;;;;;8.70;2.10;;;;;;;10.67;86.26;100527.31;5067377;28;20037;-69
2022/11/08 06:16:28;;;;;;;4.00;1.65;;;;;;;10.65;86.20;100532.66;5048649;28;20467;-70
2022/11/08 06:18:56;;;;;;;6.18;1.67;;;;;;;10.63;86.16;100523.09;5048554;28;20507;-70
2022/11/08 06:21:25;;;;;;;5.68;1.80;;;;;;;10.61;86.11;100525.75;5042692;28;20045;-70
2022/11/08 06:23:53;;;;;;;6.10;1.95;;;;;;;10.50;85.88;100522.63;5051404;28;20522;-70
2022/11/08 06:26:22;;;;;;;4.82;1.75;;;;;;;10.41;85.93;100524.69;5049376;28;20081;-70
2022/11/08 06:28:50;;;;;;;4.35;1.75;;;;;;;10.31;86.13;100520.63;5050607;28;20091;-70
2022/11/08 06:31:17;;;;;;;5.15;1.98;;;;;;;10.25;86.44;100529.59;5052630;28;20042;-71
2022/11/08 06:33:45;;;;;;;8.13;1.90;;;;;;;10.19;86.81;100528.94;5050890;28;20052;-71
2022/11/08 06:36:13;;;;;;;5.88;1.95;;;;;;;10.13;86.91;100529.16;5047828;28;20562;-70
2022/11/08 06:38:40;;;;;;;6.75;1.90;;;;;;;10.08;87.07;100531.94;5050550;28;20041;-71
2022/11/08 06:41:18;;;;;;;4.32;1.75;;;;;;;10.05;87.02;100532.91;5053605;28;20033;-70
2022/11/08 06:43:45;;;;;;;5.57;2.00;;;;;;;10.02;87.29;100530.34;5052114;28;20049;-71
2022/11/08 06:46:14;;;;;;;9.43;2.00;;;;;;;10.02;87.39;100514.56;5053546;28;20045;-70
2022/11/08 06:48:41;;;;;;;4.80;1.67;;;;;;;10.04;87.34;100525.91;5053342;28;20499;-71
2022/11/08 06:51:08;;;;;;;4.78;2.05;;;;;;;10.06;87.22;100525.84;5051498;28;20088;-70
2022/11/08 06:53:35;;;;;;;5.35;1.50;;;;;;;10.08;87.18;100529.31;5052878;28;20573;-71
2022/11/08 06:56:02;;;;;;;3.35;1.58;;;;;;;10.09;87.31;100517.84;5052669;28;20069;-71
2022/11/08 06:58:31;;;;;;;5.45;1.70;;;;;;;10.13;87.20;100527.34;5051821;28;20037;-71
2022/11/08 07:01:03;;;;;;;4.97;1.85;;;;;;;10.14;86.94;100529.09;5051708;28;20068;-70
2022/11/08 07:03:31;;;;;;;3.35;1.70;;;;;;;10.17;86.82;100523.72;5064955;28;20128;-71
2022/11/08 07:06:03;;;;;;;5.95;1.85;;;;;;;10.22;86.74;100521.81;5052382;28;20123;-71
2022/11/08 07:08:31;;;;;;;6.70;2.00;;;;;;;10.26;86.67;100527.81;5050098;28;20056;-71
2022/11/08 07:10:59;;;;;;;5.63;1.90;;;;;;;10.30;86.59;100534.69;5056002;28;20037;-71
2022/11/08 07:13:26;;;;;;;6.38;2.00;;;;;;;10.33;86.28;100533.72;5051565;28;20042;-70
2022/11/08 07:16:03;;;;;;;5.07;2.03;;;;;;;10.37;86.23;100516.91;5052965;28;20486;-71
2022/11/08 07:18:30;;;;;;;5.00;1.80;;;;;;;10.39;86.00;100523.88;5055867;28;20172;-71
2022/11/08 07:21:00;;;;;;;3.50;1.67;;;;;;;10.47;85.53;100528.03;5071842;28;20037;-71
2022/11/08 07:23:28;;;;;;;4.10;1.75;;;;;;;10.49;85.66;100520.91;5062024;28;20050;-71
2022/11/08 07:25:55;;;;;;;6.97;2.35;;;;;;;10.53;85.27;100523.38;5051961;28;20045;-70
2022/11/08 07:28:22;;;;;;;5.35;2.60;;;;;;;10.59;85.10;100522.31;5053553;28;20045;-71
2022/11/08 07:30:49;;;;;;;5.72;1.70;;;;;;;10.66;84.96;100520.31;5051346;28;20068;-71
2022/11/08 07:33:16;;;;;;;4.20;1.83;;;;;;;10.73;84.50;100529.75;5052806;28;20519;-71
2022/11/08 07:35:46;;;;;;;11.73;2.00;;;;;;;10.77;84.39;100522.59;5052950;28;20080;-71
2022/11/08 07:38:14;;;;;;;6.88;1.63;;;;;;;10.83;84.12;100522.34;5053748;28;20049;-71
2022/11/08 07:40:41;;;;;;;4.00;1.50;;;;;;;10.88;83.85;100520.44;5062065;28;20057;-71
2022/11/08 07:43:08;;;;;;;6.30;1.63;;;;;;;10.95;83.37;100527.19;5068435;28;20048;-71
2022/11/08 07:45:40;;;;;;;5.05;2.10;;;;;;;11.01;83.17;100515.56;5051254;28;20052;-71
2022/11/08 07:48:11;;;;;;;7.07;2.00;;;;;;;11.07;82.89;100528.50;5066260;28;20502;-71
2022/11/08 07:50:41;;;;;;;5.13;1.90;;;;;;;11.12;82.89;100530.97;5061110;28;20046;-70
2022/11/08 07:53:09;;;;;;;8.02;1.90;;;;;;;11.17;82.37;100527.22;5058115;28;20818;-71
2022/11/08 07:55:39;;;;;;;4.32;1.50;;;;;;;11.24;81.95;100522.59;5057744;28;20045;-71
2022/11/08 07:58:09;;;;;;;3.95;1.45;;;;;;;11.32;81.71;100528.44;5067740;28;20124;-71
2022/11/08 08:00:39;;;;;;;6.70;1.70;;;;;;;11.41;81.30;100519.31;5063235;28;20053;-71
2022/11/08 08:03:10;;;;;;;4.78;1.60;;;;;;;11.49;80.88;100511.94;5061618;28;20052;-71
2022/11/08 08:05:42;;;;;;;4.50;1.38;;;;;;;11.58;80.44;100515.13;5052489;28;20526;-70
2022/11/08 08:08:11;;;;;;;4.53;1.60;;;;;;;11.70;79.98;100524.38;5052398;28;20045;-70
2022/11/08 08:10:39;;;;;;;5.75;1.92;;;;;;;11.77;79.58;100505.53;5049307;28;20038;-70
2022/11/08 08:13:07;;;;;;;6.32;1.60;;;;;;;11.84;79.49;100514.09;5052784;28;20092;-70
2022/11/08 08:15:34;;;;;;;4.32;1.42;;;;;;;11.92;78.55;100508.50;5053178;28;20033;-70
2022/11/08 08:18:04;;;;;;;4.18;1.50;;;;;;;11.96;78.17;100503.03;5043208;28;20046;-71
2022/11/08 08:20:33;;;;;;;5.75;1.40;;;;;;;12.01;78.13;100508.16;5046527;28;20087;-70
2022/11/08 08:23:00;;;;;;;62.92;4.85;;;;;;;12.05;78.07;100504.47;5068637;28;20037;-72
2022/11/08 08:25:30;;;;;;;4.47;1.50;;;;;;;12.10;77.31;100510.41;5063994;28;20119;-70
2022/11/08 08:28:01;;;;;;;3.47;1.30;;;;;;;12.15;77.15;100506.72;5052372;28;20041;-70
2022/11/08 08:30:31;;;;;;;7.38;1.77;;;;;;;12.17;76.89;100504.84;5052827;28;20045;-71
2022/11/08 08:33:15;;;;;;;6.47;1.60;;;;;;;12.21;76.83;100501.16;5057814;28;20042;-70
2022/11/08 08:36:01;;;;;;;2.63;1.40;;;;;;;12.21;76.84;100507.28;5052082;28;20760;-71
2022/11/08 08:38:30;;;;;;;3.95;1.40;;;;;;;12.24;76.97;100514.25;5066697;28;20041;-71
2022/11/08 08:40:58;;;;;;;5.95;1.50;;;;;;;12.29;76.94;100514.06;5057269;28;20045;-71
2022/11/08 08:43:28;;;;;;;2.47;1.40;;;;;;;12.33;76.71;100524.44;5051370;28;20050;-71
2022/11/08 08:46:04;;;;;;;9.88;1.80;;;;;;;12.40;76.21;100527.69;5055385;28;20048;-71
2022/11/08 08:48:32;;;;;;;3.80;1.50;;;;;;;12.44;75.92;100516.03;5051014;28;20046;-71
2022/11/08 08:50:59;;;;;;;4.82;1.50;;;;;;;12.48;75.68;100522.91;5057916;28;20056;-71
2022/11/08 08:53:26;;;;;;;2.10;1.00;;;;;;;12.51;75.50;100528.06;5065236;28;20041;-71
2022/11/08 08:55:53;;;;;;;2.50;1.33;;;;;;;12.58;75.30;100531.28;5071783;28;20037;-71
2022/11/08 08:58:21;;;;;;;2.60;1.23;;;;;;;12.64;75.01;100533.69;5051648;28;20760;-71
2022/11/08 09:00:49;;;;;;;5.80;2.00;;;;;;;12.69;74.98;100530.84;5071667;28;20033;-71
2022/11/08 09:03:38;;;;;;;5.38;1.70;;;;;;;12.76;74.80;100523.50;5050236;28;20041;-71
2022/11/08 09:06:06;;;;;;;13.35;1.90;;;;;;;12.82;74.95;100525.84;5051626;28;20052;-71
2022/11/08 09:08:33;;;;;;;5.90;1.50;;;;;;;12.92;74.47;100523.66;5051452;28;20061;-71
2022/11/08 09:11:02;;;;;;;4.18;1.40;;;;;;;12.95;74.27;100516.44;5051993;28;20053;-70
2022/11/08 09:13:31;;;;;;;3.13;1.90;;;;;;;13.00;73.99;100518.88;5052833;28;20499;-70
2022/11/08 09:16:01;;;;;;;6.72;1.92;;;;;;;13.02;73.64;100514.38;5071583;28;20041;-71
2022/11/08 09:18:29;;;;;;;4.45;1.55;;;;;;;13.07;73.88;100522.09;5054062;28;20045;-71
2022/11/08 09:20:58;;;;;;;2.22;1.48;;;;;;;13.10;73.61;100514.00;5054695;28;20047;-71
2022/11/08 09:23:25;;;;;;;4.57;2.35;;;;;;;13.11;73.11;100521.03;5070131;28;20040;-71
2022/11/08 09:26:04;;;;;;;7.20;1.65;;;;;;;13.14;73.04;100511.16;5061857;28;20495;-71
2022/11/08 09:28:33;;;;;;;5.75;2.20;;;;;;;13.16;72.95;100508.44;5045083;28;20041;-70
2022/11/08 09:31:05;;;;;;;5.15;1.67;;;;;;;13.17;72.79;100502.22;5051377;28;20140;-70
2022/11/08 09:33:35;;;;;;;5.38;1.73;;;;;;;13.23;72.66;100501.09;5053493;28;20041;-70
2022/11/08 09:36:04;;;;;;;3.05;1.45;;;;;;;13.28;72.56;100486.69;5049862;28;20124;-71
2022/11/08 09:38:32;;;;;;;2.83;1.17;;;;;;;13.35;72.77;100476.66;5063012;28;20131;-71
2022/11/08 09:41:14;;;;;;;7.57;1.60;;;;;;;13.43;72.03;100473.69;5069775;28;20037;-70
2022/11/08 09:44:18;;;;;;;7.13;1.98;;;;;;;13.49;71.84;100497.22;5062322;28;20041;-72
2022/11/08 09:46:52;;;;;;;5.13;1.85;;;;;;;13.57;71.58;100495.06;5050878;28;20049;-70
2022/11/08 09:49:31;;;;;;;4.47;1.40;;;;;;;13.60;71.59;100486.97;5037637;28;20041;-70
2022/11/08 09:52:01;;;;;;;7.10;1.40;;;;;;;13.68;71.66;100496.34;5050278;28;20046;-70
2022/11/08 09:54:39;;;;;;;4.40;1.70;;;;;;;13.72;70.95;100485.53;5050644;28;20076;-72
2022/11/08 09:57:25;;;;;;;4.18;2.05;;;;;;;13.80;70.50;100482.47;5050762;28;20046;-72
2022/11/08 10:00:04;;;;;;;3.58;1.30;;;;;;;13.87;70.73;100478.59;5069287;28;20139;-72
2022/11/08 10:02:35;;;;;;;5.03;1.33;;;;;;;13.91;70.72;100484.59;5040121;28;20168;-72
2022/11/08 10:05:08;;;;;;;3.13;1.60;;;;;;;13.97;70.77;100482.50;5051048;28;20048;-71
2022/11/08 10:07:48;;;;;;;2.85;1.30;;;;;;;14.01;70.19;100475.25;5054142;28;20045;-72
2022/11/08 10:11:00;;;;;;;2.28;1.20;;;;;;;14.12;70.02;100483.53;5050751;28;20045;-73
2022/11/08 10:13:30;;;;;;;6.43;1.55;;;;;;;14.19;69.91;100486.72;5052845;28;20096;-72
2022/11/08 10:16:26;;;;;;;5.18;1.50;;;;;;;14.27;69.17;100492.50;5061140;28;20037;-72
2022/11/08 10:19:14;;;;;;;7.28;1.73;;;;;;;14.33;69.29;100490.44;5049272;28;20047;-70
2022/11/08 10:22:08;;;;;;;3.10;1.20;;;;;;;14.44;69.06;100496.06;5048535;28;20854;-70
2022/11/08 10:25:00;;;;;;;4.27;1.50;;;;;;;14.54;68.73;100488.47;5050843;28;20042;-73
2022/11/08 10:27:40;;;;;;;4.65;1.58;;;;;;;14.66;68.72;100503.72;5030460;28;20750;-70
2022/11/08 10:30:30;;;;;;;4.18;1.70;;;;;;;14.80;68.36;100500.41;5030578;28;20046;-70
2022/11/08 10:32:57;;;;;;;4.10;1.27;;;;;;;14.93;68.00;100499.72;5043117;28;20172;-72
2022/11/08 10:35:33;;;;;;;8.40;1.20;;;;;;;15.08;67.71;100493.59;5050932;28;20045;-72
2022/11/08 10:38:09;;;;;;;5.03;1.45;;;;;;;15.21;67.73;100491.94;5050653;28;20044;-72
2022/11/08 10:40:49;;;;;;;6.78;1.30;;;;;;;15.26;67.24;100499.66;5050139;28;20566;-72
2022/11/08 10:43:34;;;;;;;3.80;1.08;;;;;;;15.26;66.31;100499.66;5050576;28;20050;-70
2022/11/08 10:46:01;;;;;;;3.70;1.30;;;;;;;15.21;66.57;100505.22;5049749;28;20511;-72
2022/11/08 10:48:36;;;;;;;5.18;1.27;;;;;;;15.20;66.83;100506.19;5050055;28;20076;-71
2022/11/08 10:51:03;;;;;;;3.20;1.27;;;;;;;15.24;67.20;100514.84;5050469;28;20040;-72
2022/11/08 10:53:31;;;;;;;5.75;1.17;;;;;;;15.31;66.32;100512.72;5049918;28;20038;-72
2022/11/08 10:56:01;;;;;;;3.67;1.52;;;;;;;15.41;65.41;100495.31;5050373;28;20049;-72
2022/11/08 10:58:38;;;;;;;4.90;1.25;;;;;;;15.51;65.47;100499.19;5050215;28;20042;-72
2022/11/08 11:01:19;;;;;;;5.88;1.30;;;;;;;15.60;64.81;100492.47;5049975;28;20068;-72
2022/11/08 11:03:49;;;;;;;2.65;1.10;;;;;;;15.65;64.48;100489.53;5050088;28;20084;-72
2022/11/08 11:06:29;;;;;;;3.50;1.30;;;;;;;15.68;64.25;100495.53;5052904;28;20447;-72
2022/11/08 11:09:01;;;;;;;3.65;1.10;;;;;;;15.65;64.78;100493.06;5053037;28;20069;-72
2022/11/08 11:11:31;;;;;;;5.35;1.40;;;;;;;15.66;64.51;100499.22;5053300;28;20033;-72
2022/11/08 11:14:18;;;;;;;4.15;1.30;;;;;;;15.63;64.34;100496.75;5053980;28;20041;-72
2022/11/08 11:17:14;;;;;;;8.65;1.38;;;;;;;15.56;64.76;100498.91;5043894;28;20040;-72
2022/11/08 11:19:56;;;;;;;5.10;1.30;;;;;;;15.54;64.51;100506.13;5053692;28;20107;-72
2022/11/08 11:22:34;;;;;;;3.33;1.52;;;;;;;15.48;64.41;100507.31;5052449;28;20045;-72
2022/11/08 11:25:15;;;;;;;8.52;1.63;;;;;;;15.47;64.55;100505.59;5060125;28;20033;-72
2022/11/08 11:27:47;;;;;;;4.30;1.40;;;;;;;15.46;64.62;100500.38;5057250;28;20092;-72
2022/11/08 11:30:29;;;;;;;2.78;1.48;;;;;;;15.52;64.42;100498.22;5066388;28;20568;-72
2022/11/08 11:33:12;;;;;;;7.75;1.17;;;;;;;15.54;64.55;100487.50;5054114;28;20099;-72
2022/11/08 11:35:53;;;;;;;2.80;1.38;;;;;;;15.58;63.63;100493.50;5053405;28;20041;-72
2022/11/08 11:38:34;;;;;;;4.93;1.15;;;;;;;15.63;63.69;100496.75;5053011;28;20068;-72
2022/11/08 11:41:11;;;;;;;4.55;1.30;;;;;;;15.69;63.76;100491.09;5053780;28;20065;-72
2022/11/08 11:44:22;;;;;;;6.55;1.20;;;;;;;15.75;63.80;100488.06;5053656;28;20046;-72
2022/11/08 11:47:41;;;;;;;6.10;1.20;;;;;;;15.88;63.44;100487.41;5053934;28;20033;-72
2022/11/08 11:50:29;;;;;;;6.05;1.65;;;;;;;15.97;62.86;100465.59;5045507;28;20065;-72
2022/11/08 11:52:59;;;;;;;4.85;1.40;;;;;;;16.10;62.63;100457.75;5052096;28;20049;-72
2022/11/08 11:56:07;;;;;;;4.43;1.00;;;;;;;16.22;62.31;100448.19;5053919;28;20081;-72
2022/11/08 11:58:37;;;;;;;3.88;1.20;;;;;;;16.29;62.11;100437.06;5053571;28;20041;-72
2022/11/08 12:01:42;;;;;;;4.80;1.33;;;;;;;16.36;62.15;100432.22;5053085;28;20093;-72
2022/11/08 12:04:40;;;;;;;3.75;1.30;;;;;;;16.38;61.67;100426.84;5052016;28;20057;-72
2022/11/08 12:07:21;;;;;;;5.40;1.58;;;;;;;16.42;62.04;100442.53;5052042;28;20034;-72